sensor_id;sensor_type;location;lat;lon;timestamp;temperature;humidity
7970;DHT22;4030;52.362;9.206;2023-04-09T00:04:51;10.10;69.10
7970;DHT22;4030;52.362;9.206;2023-04-09T00:24:20;10.00;69.00
7970;DHT22;4030;52.362;9.206;2023-04-09T00:41:23;9.80;69.80
7970;DHT22;4030;52.362;9.206;2023-04-09T00:43:48;9.80;69.70
7970;DHT22;4030;52.362;9.206;2023-04-09T00:48:41;9.70;69.50
7970;DHT22;4030;52.362;9.206;2023-04-09T00:51:07;9.70;69.30
7970;DHT22;4030;52.362;9.206;2023-04-09T00:53:33;9.60;69.20
7970;DHT22;4030;52.362;9.206;2023-04-09T00:56:00;9.60;69.20
7970;DHT22;4030;52.362;9.206;2023-04-09T01:03:18;9.60;69.20
7970;DHT22;4030;52.362;9.206;2023-04-09T01:06:14;9.50;69.10
7970;DHT22;4030;52.362;9.206;2023-04-09T01:09:02;9.50;69.10
7970;DHT22;4030;52.362;9.206;2023-04-09T01:11:37;9.50;69.20
7970;DHT22;4030;52.362;9.206;2023-04-09T01:17:25;9.50;69.30
7970;DHT22;4030;52.362;9.206;2023-04-09T01:22:56;9.50;69.30
7970;DHT22;4030;52.362;9.206;2023-04-09T01:26:02;9.40;69.30
7970;DHT22;4030;52.362;9.206;2023-04-09T01:28:35;9.30;69.40
7970;DHT22;4030;52.362;9.206;2023-04-09T01:31:12;9.40;69.40
7970;DHT22;4030;52.362;9.206;2023-04-09T01:33:40;9.30;69.50
7970;DHT22;4030;52.362;9.206;2023-04-09T01:36:07;9.30;69.60
7970;DHT22;4030;52.362;9.206;2023-04-09T01:38:35;9.50;69.90
7970;DHT22;4030;52.362;9.206;2023-04-09T01:41:02;9.30;69.80
7970;DHT22;4030;52.362;9.206;2023-04-09T01:43:30;9.30;69.90
7970;DHT22;4030;52.362;9.206;2023-04-09T01:45:57;9.30;70.00
7970;DHT22;4030;52.362;9.206;2023-04-09T01:48:24;9.20;70.00
7970;DHT22;4030;52.362;9.206;2023-04-09T01:50:50;9.20;70.00
7970;DHT22;4030;52.362;9.206;2023-04-09T01:53:17;9.30;70.30
7970;DHT22;4030;52.362;9.206;2023-04-09T01:55:42;9.30;70.30
7970;DHT22;4030;52.362;9.206;2023-04-09T02:00:41;9.20;70.30
7970;DHT22;4030;52.362;9.206;2023-04-09T02:05:55;9.20;70.60
7970;DHT22;4030;52.362;9.206;2023-04-09T02:08:24;9.20;70.70
7970;DHT22;4030;52.362;9.206;2023-04-09T02:10:54;9.20;70.90
7970;DHT22;4030;52.362;9.206;2023-04-09T02:13:23;9.20;71.10
7970;DHT22;4030;52.362;9.206;2023-04-09T02:18:27;9.20;71.20
7970;DHT22;4030;52.362;9.206;2023-04-09T02:20:55;9.20;71.30
7970;DHT22;4030;52.362;9.206;2023-04-09T02:23:21;9.20;71.40
7970;DHT22;4030;52.362;9.206;2023-04-09T02:28:14;9.20;71.60
7970;DHT22;4030;52.362;9.206;2023-04-09T02:30:39;9.20;71.60
7970;DHT22;4030;52.362;9.206;2023-04-09T02:33:05;9.20;71.60
7970;DHT22;4030;52.362;9.206;2023-04-09T02:35:31;9.20;71.60
7970;DHT22;4030;52.362;9.206;2023-04-09T02:40:23;9.30;71.90
7970;DHT22;4030;52.362;9.206;2023-04-09T02:42:51;9.20;71.80
7970;DHT22;4030;52.362;9.206;2023-04-09T02:45:17;9.30;72.20
7970;DHT22;4030;52.362;9.206;2023-04-09T02:47:43;9.30;72.20
7970;DHT22;4030;52.362;9.206;2023-04-09T02:50:09;9.20;72.20
7970;DHT22;4030;52.362;9.206;2023-04-09T02:55:01;9.20;72.30
7970;DHT22;4030;52.362;9.206;2023-04-09T02:57:26;9.30;72.50
7970;DHT22;4030;52.362;9.206;2023-04-09T02:59:52;9.20;72.40
7970;DHT22;4030;52.362;9.206;2023-04-09T03:02:18;9.20;72.40
7970;DHT22;4030;52.362;9.206;2023-04-09T03:12:02;9.20;72.50
7970;DHT22;4030;52.362;9.206;2023-04-09T03:24:13;9.10;72.80
7970;DHT22;4030;52.362;9.206;2023-04-09T03:26:39;9.10;72.90
7970;DHT22;4030;52.362;9.206;2023-04-09T03:29:06;9.10;73.00
7970;DHT22;4030;52.362;9.206;2023-04-09T03:31:32;9.10;73.00
7970;DHT22;4030;52.362;9.206;2023-04-09T03:33:57;9.00;73.00
7970;DHT22;4030;52.362;9.206;2023-04-09T03:36:23;9.00;73.10
7970;DHT22;4030;52.362;9.206;2023-04-09T03:41:15;9.10;73.10
7970;DHT22;4030;52.362;9.206;2023-04-09T03:46:11;9.00;73.10
7970;DHT22;4030;52.362;9.206;2023-04-09T03:48:37;9.00;73.20
7970;DHT22;4030;52.362;9.206;2023-04-09T03:53:29;9.00;73.30
7970;DHT22;4030;52.362;9.206;2023-04-09T04:05:41;8.90;73.20
7970;DHT22;4030;52.362;9.206;2023-04-09T04:08:06;8.90;73.30
7970;DHT22;4030;52.362;9.206;2023-04-09T04:10:35;9.00;73.40
7970;DHT22;4030;52.362;9.206;2023-04-09T04:13:00;8.90;73.30
7970;DHT22;4030;52.362;9.206;2023-04-09T04:15:27;8.90;73.40
7970;DHT22;4030;52.362;9.206;2023-04-09T04:17:53;8.90;73.40
7970;DHT22;4030;52.362;9.206;2023-04-09T04:20:19;8.90;73.40
7970;DHT22;4030;52.362;9.206;2023-04-09T04:22:44;8.80;73.40
7970;DHT22;4030;52.362;9.206;2023-04-09T04:25:10;9.00;73.60
7970;DHT22;4030;52.362;9.206;2023-04-09T04:32:28;8.90;73.60
7970;DHT22;4030;52.362;9.206;2023-04-09T04:34:54;8.80;73.50
7970;DHT22;4030;52.362;9.206;2023-04-09T04:42:13;8.70;73.40
7970;DHT22;4030;52.362;9.206;2023-04-09T05:11:28;8.70;73.90
7970;DHT22;4030;52.362;9.206;2023-04-09T05:13:54;8.60;73.80
7970;DHT22;4030;52.362;9.206;2023-04-09T05:16:20;8.70;73.90
7970;DHT22;4030;52.362;9.206;2023-04-09T05:21:12;8.80;74.10
7970;DHT22;4030;52.362;9.206;2023-04-09T05:23:38;8.70;74.10
7970;DHT22;4030;52.362;9.206;2023-04-09T05:43:06;8.80;74.70
7970;DHT22;4030;52.362;9.206;2023-04-09T05:52:50;8.70;74.80
7970;DHT22;4030;52.362;9.206;2023-04-09T06:00:10;8.70;74.90
7970;DHT22;4030;52.362;9.206;2023-04-09T06:02:36;8.80;75.00
7970;DHT22;4030;52.362;9.206;2023-04-09T06:05:02;8.80;75.10
7970;DHT22;4030;52.362;9.206;2023-04-09T06:07:28;8.80;75.30
7970;DHT22;4030;52.362;9.206;2023-04-09T06:09:54;8.90;75.20
7970;DHT22;4030;52.362;9.206;2023-04-09T06:14:50;8.80;75.10
7970;DHT22;4030;52.362;9.206;2023-04-09T06:17:15;8.80;75.20
7970;DHT22;4030;52.362;9.206;2023-04-09T06:22:10;8.90;75.10
7970;DHT22;4030;52.362;9.206;2023-04-09T06:24:35;8.70;75.00
7970;DHT22;4030;52.362;9.206;2023-04-09T06:31:53;8.90;75.00
7970;DHT22;4030;52.362;9.206;2023-04-09T06:48:56;9.10;74.80
7970;DHT22;4030;52.362;9.206;2023-04-09T07:01:06;9.20;74.70
7970;DHT22;4030;52.362;9.206;2023-04-09T07:10:51;9.40;74.90
7970;DHT22;4030;52.362;9.206;2023-04-09T07:13:17;9.40;74.80
7970;DHT22;4030;52.362;9.206;2023-04-09T07:20:34;9.60;74.90
7970;DHT22;4030;52.362;9.206;2023-04-09T07:35:11;10.00;74.50
7970;DHT22;4030;52.362;9.206;2023-04-09T07:42:30;9.90;75.90
7970;DHT22;4030;52.362;9.206;2023-04-09T07:47:22;10.00;75.00
7970;DHT22;4030;52.362;9.206;2023-04-09T07:49:48;10.10;75.40
7970;DHT22;4030;52.362;9.206;2023-04-09T07:52:14;10.10;75.40
7970;DHT22;4030;52.362;9.206;2023-04-09T07:54:40;10.10;75.50
7970;DHT22;4030;52.362;9.206;2023-04-09T07:59:33;10.20;76.30
7970;DHT22;4030;52.362;9.206;2023-04-09T08:01:59;10.20;77.70
7970;DHT22;4030;52.362;9.206;2023-04-09T08:04:25;10.30;78.50
7970;DHT22;4030;52.362;9.206;2023-04-09T08:06:51;10.30;78.60
7970;DHT22;4030;52.362;9.206;2023-04-09T08:11:45;10.40;78.10
7970;DHT22;4030;52.362;9.206;2023-04-09T08:14:12;10.40;77.90
7970;DHT22;4030;52.362;9.206;2023-04-09T08:16:39;10.50;77.80
7970;DHT22;4030;52.362;9.206;2023-04-09T08:19:06;10.50;77.80
7970;DHT22;4030;52.362;9.206;2023-04-09T08:26:29;10.70;77.50
7970;DHT22;4030;52.362;9.206;2023-04-09T08:28:55;10.80;77.20
7970;DHT22;4030;52.362;9.206;2023-04-09T08:31:21;10.90;77.20
7970;DHT22;4030;52.362;9.206;2023-04-09T08:41:06;11.10;76.60
7970;DHT22;4030;52.362;9.206;2023-04-09T08:43:32;11.10;76.80
7970;DHT22;4030;52.362;9.206;2023-04-09T08:45:59;11.20;77.60
7970;DHT22;4030;52.362;9.206;2023-04-09T08:50:54;11.10;80.00
7970;DHT22;4030;52.362;9.206;2023-04-09T08:53:20;11.10;80.10
7970;DHT22;4030;52.362;9.206;2023-04-09T08:55:48;11.20;79.90
7970;DHT22;4030;52.362;9.206;2023-04-09T08:58:14;11.20;79.60
7970;DHT22;4030;52.362;9.206;2023-04-09T09:00:40;11.30;79.30
7970;DHT22;4030;52.362;9.206;2023-04-09T09:03:07;11.30;79.00
7970;DHT22;4030;52.362;9.206;2023-04-09T09:10:38;11.70;78.40
7970;DHT22;4030;52.362;9.206;2023-04-09T09:13:24;11.80;78.40
7970;DHT22;4030;52.362;9.206;2023-04-09T09:15:52;12.00;78.70
7970;DHT22;4030;52.362;9.206;2023-04-09T09:18:42;12.10;78.60
7970;DHT22;4030;52.362;9.206;2023-04-09T09:23:40;12.40;78.90
7970;DHT22;4030;52.362;9.206;2023-04-09T09:26:14;12.50;78.90
7970;DHT22;4030;52.362;9.206;2023-04-09T09:31:08;12.80;79.70
7970;DHT22;4030;52.362;9.206;2023-04-09T09:33:34;12.90;80.00
7970;DHT22;4030;52.362;9.206;2023-04-09T09:36:00;13.10;80.30
7970;DHT22;4030;52.362;9.206;2023-04-09T09:38:28;13.20;80.20
7970;DHT22;4030;52.362;9.206;2023-04-09T09:40:54;13.50;80.10
7970;DHT22;4030;52.362;9.206;2023-04-09T09:45:46;13.90;79.70
7970;DHT22;4030;52.362;9.206;2023-04-09T09:50:40;14.30;79.40
7970;DHT22;4030;52.362;9.206;2023-04-09T09:53:08;14.50;79.10
7970;DHT22;4030;52.362;9.206;2023-04-09T09:55:40;14.60;78.90
7970;DHT22;4030;52.362;9.206;2023-04-09T09:58:18;14.80;78.60
7970;DHT22;4030;52.362;9.206;2023-04-09T10:00:50;15.10;78.50
7970;DHT22;4030;52.362;9.206;2023-04-09T10:03:22;15.20;78.10
7970;DHT22;4030;52.362;9.206;2023-04-09T10:05:50;15.30;77.80
7970;DHT22;4030;52.362;9.206;2023-04-09T10:08:17;15.40;77.60
7970;DHT22;4030;52.362;9.206;2023-04-09T10:10:44;15.60;77.50
7970;DHT22;4030;52.362;9.206;2023-04-09T10:13:17;15.70;77.20
7970;DHT22;4030;52.362;9.206;2023-04-09T10:15:46;15.90;77.00
7970;DHT22;4030;52.362;9.206;2023-04-09T10:18:14;15.90;76.80
7970;DHT22;4030;52.362;9.206;2023-04-09T10:20:45;16.10;76.60
7970;DHT22;4030;52.362;9.206;2023-04-09T10:23:23;16.20;76.30
7970;DHT22;4030;52.362;9.206;2023-04-09T10:25:56;16.40;76.20
7970;DHT22;4030;52.362;9.206;2023-04-09T10:28:22;16.50;76.00
7970;DHT22;4030;52.362;9.206;2023-04-09T10:33:15;16.80;75.60
7970;DHT22;4030;52.362;9.206;2023-04-09T10:35:45;16.90;75.30
7970;DHT22;4030;52.362;9.206;2023-04-09T10:38:13;17.00;75.10
7970;DHT22;4030;52.362;9.206;2023-04-09T10:40:49;17.10;74.90
7970;DHT22;4030;52.362;9.206;2023-04-09T10:43:18;17.30;74.80
7970;DHT22;4030;52.362;9.206;2023-04-09T10:45:47;17.40;74.50
7970;DHT22;4030;52.362;9.206;2023-04-09T10:48:18;17.50;74.30
7970;DHT22;4030;52.362;9.206;2023-04-09T10:53:22;17.70;73.90
7970;DHT22;4030;52.362;9.206;2023-04-09T10:55:49;17.80;73.70
7970;DHT22;4030;52.362;9.206;2023-04-09T11:00:47;18.00;73.30
7970;DHT22;4030;52.362;9.206;2023-04-09T11:03:27;18.10;73.30
7970;DHT22;4030;52.362;9.206;2023-04-09T11:06:01;18.20;73.40
7970;DHT22;4030;52.362;9.206;2023-04-09T11:08:31;18.40;73.50
7970;DHT22;4030;52.362;9.206;2023-04-09T11:10:58;18.40;73.50
7970;DHT22;4030;52.362;9.206;2023-04-09T11:15:52;18.70;73.70
7970;DHT22;4030;52.362;9.206;2023-04-09T11:18:20;18.70;73.70
7970;DHT22;4030;52.362;9.206;2023-04-09T11:23:16;19.00;73.80
7970;DHT22;4030;52.362;9.206;2023-04-09T11:25:46;19.10;73.60
7970;DHT22;4030;52.362;9.206;2023-04-09T11:33:06;19.40;73.10
7970;DHT22;4030;52.362;9.206;2023-04-09T11:35:33;19.40;72.90
7970;DHT22;4030;52.362;9.206;2023-04-09T11:40:26;19.60;72.60
7970;DHT22;4030;52.362;9.206;2023-04-09T11:42:54;19.70;72.50
7970;DHT22;4030;52.362;9.206;2023-04-09T11:45:25;19.70;72.20
7970;DHT22;4030;52.362;9.206;2023-04-09T11:47:52;19.90;72.00
7970;DHT22;4030;52.362;9.206;2023-04-09T11:50:19;19.90;71.70
7970;DHT22;4030;52.362;9.206;2023-04-09T11:52:46;20.00;71.50
7970;DHT22;4030;52.362;9.206;2023-04-09T11:55:21;20.20;71.50
7970;DHT22;4030;52.362;9.206;2023-04-09T11:57:53;20.30;71.20
7970;DHT22;4030;52.362;9.206;2023-04-09T12:02:50;20.40;70.60
7970;DHT22;4030;52.362;9.206;2023-04-09T12:05:25;20.50;70.20
7970;DHT22;4030;52.362;9.206;2023-04-09T12:08:03;20.50;69.70
7970;DHT22;4030;52.362;9.206;2023-04-09T12:10:34;20.70;69.50
7970;DHT22;4030;52.362;9.206;2023-04-09T12:13:09;20.80;69.20
7970;DHT22;4030;52.362;9.206;2023-04-09T12:15:37;20.90;69.00
7970;DHT22;4030;52.362;9.206;2023-04-09T12:18:07;20.90;68.70
7970;DHT22;4030;52.362;9.206;2023-04-09T12:20:42;21.00;68.40
7970;DHT22;4030;52.362;9.206;2023-04-09T12:23:09;21.00;68.20
7970;DHT22;4030;52.362;9.206;2023-04-09T12:25:37;21.10;68.00
7970;DHT22;4030;52.362;9.206;2023-04-09T12:28:05;21.10;67.20
7970;DHT22;4030;52.362;9.206;2023-04-09T12:30:32;21.10;66.50
7970;DHT22;4030;52.362;9.206;2023-04-09T12:32:58;21.10;65.90
7970;DHT22;4030;52.362;9.206;2023-04-09T12:35:24;21.00;65.50
7970;DHT22;4030;52.362;9.206;2023-04-09T12:37:50;21.00;65.30
7970;DHT22;4030;52.362;9.206;2023-04-09T12:40:17;20.90;65.10
7970;DHT22;4030;52.362;9.206;2023-04-09T12:42:44;20.80;65.00
7970;DHT22;4030;52.362;9.206;2023-04-09T12:45:12;20.60;64.80
7970;DHT22;4030;52.362;9.206;2023-04-09T12:50:06;20.50;65.10
7970;DHT22;4030;52.362;9.206;2023-04-09T12:52:33;20.40;65.00
7970;DHT22;4030;52.362;9.206;2023-04-09T12:54:59;20.30;64.90
7970;DHT22;4030;52.362;9.206;2023-04-09T12:57:25;20.20;64.70
7970;DHT22;4030;52.362;9.206;2023-04-09T13:02:18;20.00;63.90
7970;DHT22;4030;52.362;9.206;2023-04-09T13:04:44;19.90;63.70
7970;DHT22;4030;52.362;9.206;2023-04-09T13:07:10;19.90;63.60
7970;DHT22;4030;52.362;9.206;2023-04-09T13:09:37;19.80;63.40
7970;DHT22;4030;52.362;9.206;2023-04-09T13:12:02;19.70;63.20
7970;DHT22;4030;52.362;9.206;2023-04-09T13:16:55;19.60;62.50
7970;DHT22;4030;52.362;9.206;2023-04-09T13:21:46;19.60;62.00
7970;DHT22;4030;52.362;9.206;2023-04-09T13:29:05;19.40;61.20
7970;DHT22;4030;52.362;9.206;2023-04-09T13:31:31;19.30;61.00
7970;DHT22;4030;52.362;9.206;2023-04-09T13:46:08;18.90;60.60
7970;DHT22;4030;52.362;9.206;2023-04-09T13:48:33;18.80;60.50
7970;DHT22;4030;52.362;9.206;2023-04-09T13:53:25;18.70;60.40
7970;DHT22;4030;52.362;9.206;2023-04-09T13:58:17;18.50;60.30
7970;DHT22;4030;52.362;9.206;2023-04-09T14:00:44;18.40;60.30
7970;DHT22;4030;52.362;9.206;2023-04-09T14:03:10;18.40;60.30
7970;DHT22;4030;52.362;9.206;2023-04-09T14:12:54;18.20;60.40
7970;DHT22;4030;52.362;9.206;2023-04-09T14:15:20;18.30;60.40
7970;DHT22;4030;52.362;9.206;2023-04-09T14:17:46;18.20;60.30
7970;DHT22;4030;52.362;9.206;2023-04-09T14:27:30;18.20;60.00
7970;DHT22;4030;52.362;9.206;2023-04-09T14:51:51;18.00;59.80
7970;DHT22;4030;52.362;9.206;2023-04-09T15:06:28;20.30;56.40
7970;DHT22;4030;52.362;9.206;2023-04-09T15:08:53;22.50;52.00
7970;DHT22;4030;52.362;9.206;2023-04-09T15:13:47;25.10;45.90
7970;DHT22;4030;52.362;9.206;2023-04-09T15:16:23;26.00;43.90
7970;DHT22;4030;52.362;9.206;2023-04-09T15:18:50;26.30;43.10
7970;DHT22;4030;52.362;9.206;2023-04-09T15:21:17;26.30;43.10
7970;DHT22;4030;52.362;9.206;2023-04-09T15:23:42;26.20;43.00
7970;DHT22;4030;52.362;9.206;2023-04-09T15:26:08;25.70;43.20
7970;DHT22;4030;52.362;9.206;2023-04-09T15:31:00;25.20;43.80
7970;DHT22;4030;52.362;9.206;2023-04-09T15:33:25;25.70;42.80
7970;DHT22;4030;52.362;9.206;2023-04-09T15:35:52;25.70;42.00
7970;DHT22;4030;52.362;9.206;2023-04-09T15:40:49;24.10;44.30
7970;DHT22;4030;52.362;9.206;2023-04-09T15:43:15;23.70;45.00
7970;DHT22;4030;52.362;9.206;2023-04-09T15:45:42;23.50;45.70
7970;DHT22;4030;52.362;9.206;2023-04-09T15:48:08;23.30;46.10
7970;DHT22;4030;52.362;9.206;2023-04-09T15:50:34;23.10;46.50
7970;DHT22;4030;52.362;9.206;2023-04-09T15:55:25;22.70;47.10
7970;DHT22;4030;52.362;9.206;2023-04-09T15:57:51;22.60;47.50
7970;DHT22;4030;52.362;9.206;2023-04-09T16:00:19;22.20;47.90
7970;DHT22;4030;52.362;9.206;2023-04-09T16:02:45;21.80;48.30
7970;DHT22;4030;52.362;9.206;2023-04-09T16:05:11;21.40;48.90
7970;DHT22;4030;52.362;9.206;2023-04-09T16:07:36;21.00;49.40
7970;DHT22;4030;52.362;9.206;2023-04-09T16:10:04;20.60;49.90
7970;DHT22;4030;52.362;9.206;2023-04-09T16:12:30;20.40;50.40
7970;DHT22;4030;52.362;9.206;2023-04-09T16:14:55;20.10;50.80
7970;DHT22;4030;52.362;9.206;2023-04-09T16:19:48;19.70;51.50
7970;DHT22;4030;52.362;9.206;2023-04-09T16:22:13;19.60;51.80
7970;DHT22;4030;52.362;9.206;2023-04-09T16:24:39;19.30;52.00
7970;DHT22;4030;52.362;9.206;2023-04-09T16:27:05;19.20;52.30
7970;DHT22;4030;52.362;9.206;2023-04-09T16:29:30;19.10;52.50
7970;DHT22;4030;52.362;9.206;2023-04-09T16:31:56;19.00;52.50
7970;DHT22;4030;52.362;9.206;2023-04-09T16:34:22;19.30;52.00
7970;DHT22;4030;52.362;9.206;2023-04-09T16:39:15;20.40;50.20
7970;DHT22;4030;52.362;9.206;2023-04-09T16:41:42;21.10;48.40
7970;DHT22;4030;52.362;9.206;2023-04-09T16:49:00;21.80;46.40
7970;DHT22;4030;52.362;9.206;2023-04-09T16:58:44;21.00;46.90
7970;DHT22;4030;52.362;9.206;2023-04-09T17:01:11;20.90;47.50
7970;DHT22;4030;52.362;9.206;2023-04-09T17:08:29;19.90;49.10
7970;DHT22;4030;52.362;9.206;2023-04-09T17:11:01;19.70;49.90
7970;DHT22;4030;52.362;9.206;2023-04-09T17:13:36;19.50;50.20
7970;DHT22;4030;52.362;9.206;2023-04-09T17:16:02;19.40;50.70
7970;DHT22;4030;52.362;9.206;2023-04-09T17:18:28;19.10;51.10
7970;DHT22;4030;52.362;9.206;2023-04-09T17:20:54;18.90;51.20
7970;DHT22;4030;52.362;9.206;2023-04-09T17:23:20;18.90;51.50
7970;DHT22;4030;52.362;9.206;2023-04-09T17:33:07;18.40;51.60
7970;DHT22;4030;52.362;9.206;2023-04-09T17:35:32;18.30;51.70
7970;DHT22;4030;52.362;9.206;2023-04-09T17:37:59;18.20;51.80
7970;DHT22;4030;52.362;9.206;2023-04-09T17:40:26;18.20;52.00
7970;DHT22;4030;52.362;9.206;2023-04-09T17:42:52;18.10;52.00
7970;DHT22;4030;52.362;9.206;2023-04-09T17:45:18;18.00;52.20
7970;DHT22;4030;52.362;9.206;2023-04-09T17:47:44;17.90;52.30
7970;DHT22;4030;52.362;9.206;2023-04-09T17:50:10;17.80;52.60
7970;DHT22;4030;52.362;9.206;2023-04-09T17:55:06;17.50;53.00
7970;DHT22;4030;52.362;9.206;2023-04-09T17:57:33;17.40;53.50
7970;DHT22;4030;52.362;9.206;2023-04-09T18:09:46;17.00;54.30
7970;DHT22;4030;52.362;9.206;2023-04-09T18:12:11;16.80;54.40
7970;DHT22;4030;52.362;9.206;2023-04-09T18:14:37;16.70;54.60
7970;DHT22;4030;52.362;9.206;2023-04-09T18:17:03;16.60;54.70
7970;DHT22;4030;52.362;9.206;2023-04-09T18:19:29;16.50;54.70
7970;DHT22;4030;52.362;9.206;2023-04-09T18:21:54;16.40;54.90
7970;DHT22;4030;52.362;9.206;2023-04-09T18:24:20;16.40;55.10
7970;DHT22;4030;52.362;9.206;2023-04-09T18:26:45;16.30;55.10
7970;DHT22;4030;52.362;9.206;2023-04-09T18:29:11;16.20;55.30
7970;DHT22;4030;52.362;9.206;2023-04-09T18:31:37;16.10;55.40
7970;DHT22;4030;52.362;9.206;2023-04-09T18:34:03;16.00;55.50
7970;DHT22;4030;52.362;9.206;2023-04-09T18:36:28;16.00;55.60
7970;DHT22;4030;52.362;9.206;2023-04-09T18:38:55;15.90;55.60
7970;DHT22;4030;52.362;9.206;2023-04-09T18:41:23;15.80;55.60
7970;DHT22;4030;52.362;9.206;2023-04-09T18:43:49;15.80;55.70
7970;DHT22;4030;52.362;9.206;2023-04-09T18:46:16;15.70;55.70
7970;DHT22;4030;52.362;9.206;2023-04-09T18:48:41;15.60;55.70
7970;DHT22;4030;52.362;9.206;2023-04-09T18:51:08;15.60;55.80
7970;DHT22;4030;52.362;9.206;2023-04-09T18:53:34;15.50;55.80
7970;DHT22;4030;52.362;9.206;2023-04-09T19:00:51;15.30;56.00
7970;DHT22;4030;52.362;9.206;2023-04-09T19:03:17;15.30;56.00
7970;DHT22;4030;52.362;9.206;2023-04-09T19:05:43;15.20;56.00
7970;DHT22;4030;52.362;9.206;2023-04-09T19:08:09;15.20;56.10
7970;DHT22;4030;52.362;9.206;2023-04-09T19:10:35;15.10;56.10
7970;DHT22;4030;52.362;9.206;2023-04-09T19:13:01;15.10;56.20
7970;DHT22;4030;52.362;9.206;2023-04-09T19:15:27;15.00;56.20
7970;DHT22;4030;52.362;9.206;2023-04-09T19:17:54;15.10;56.40
7970;DHT22;4030;52.362;9.206;2023-04-09T19:20:20;14.90;56.30
7970;DHT22;4030;52.362;9.206;2023-04-09T19:22:50;14.90;56.40
7970;DHT22;4030;52.362;9.206;2023-04-09T19:25:19;14.80;56.30
7970;DHT22;4030;52.362;9.206;2023-04-09T19:27:47;14.80;56.30
7970;DHT22;4030;52.362;9.206;2023-04-09T19:35:06;14.70;56.40
7970;DHT22;4030;52.362;9.206;2023-04-09T19:37:32;14.60;56.40
7970;DHT22;4030;52.362;9.206;2023-04-09T19:39:59;14.50;56.40
7970;DHT22;4030;52.362;9.206;2023-04-09T19:42:29;14.50;56.40
7970;DHT22;4030;52.362;9.206;2023-04-09T19:44:57;14.50;56.50
7970;DHT22;4030;52.362;9.206;2023-04-09T19:47:24;14.40;56.50
7970;DHT22;4030;52.362;9.206;2023-04-09T19:49:51;14.40;56.50
7970;DHT22;4030;52.362;9.206;2023-04-09T19:52:17;14.40;56.60
7970;DHT22;4030;52.362;9.206;2023-04-09T19:59:35;14.20;56.60
7970;DHT22;4030;52.362;9.206;2023-04-09T20:02:04;14.20;56.60
7970;DHT22;4030;52.362;9.206;2023-04-09T20:04:31;14.10;56.60
7970;DHT22;4030;52.362;9.206;2023-04-09T20:06:56;14.00;56.60
7970;DHT22;4030;52.362;9.206;2023-04-09T20:09:22;14.00;56.60
7970;DHT22;4030;52.362;9.206;2023-04-09T20:11:51;14.00;56.70
7970;DHT22;4030;52.362;9.206;2023-04-09T20:14:18;13.90;56.70
7970;DHT22;4030;52.362;9.206;2023-04-09T20:16:44;13.90;56.70
7970;DHT22;4030;52.362;9.206;2023-04-09T20:19:10;13.90;56.80
7970;DHT22;4030;52.362;9.206;2023-04-09T20:21:36;13.80;56.70
7970;DHT22;4030;52.362;9.206;2023-04-09T20:24:02;13.80;56.70
7970;DHT22;4030;52.362;9.206;2023-04-09T20:26:29;13.70;56.70
7970;DHT22;4030;52.362;9.206;2023-04-09T20:28:55;13.70;56.70
7970;DHT22;4030;52.362;9.206;2023-04-09T20:31:20;13.60;56.70
7970;DHT22;4030;52.362;9.206;2023-04-09T20:33:47;13.60;56.70
7970;DHT22;4030;52.362;9.206;2023-04-09T20:36:13;13.60;56.80
7970;DHT22;4030;52.362;9.206;2023-04-09T20:38:40;13.40;56.70
7970;DHT22;4030;52.362;9.206;2023-04-09T20:41:05;13.50;56.80
7970;DHT22;4030;52.362;9.206;2023-04-09T20:43:31;13.40;56.80
7970;DHT22;4030;52.362;9.206;2023-04-09T20:48:23;13.30;56.80
7970;DHT22;4030;52.362;9.206;2023-04-09T20:50:49;13.30;56.90
7970;DHT22;4030;52.362;9.206;2023-04-09T20:55:42;13.20;56.90
7970;DHT22;4030;52.362;9.206;2023-04-09T20:58:07;13.20;56.90
7970;DHT22;4030;52.362;9.206;2023-04-09T21:05:25;13.10;57.00
7970;DHT22;4030;52.362;9.206;2023-04-09T21:15:10;13.00;57.20
7970;DHT22;4030;52.362;9.206;2023-04-09T21:22:28;12.90;57.20
7970;DHT22;4030;52.362;9.206;2023-04-09T21:24:54;12.80;57.30
7970;DHT22;4030;52.362;9.206;2023-04-09T21:29:47;12.80;57.30
7970;DHT22;4030;52.362;9.206;2023-04-09T21:32:12;12.70;57.30
7970;DHT22;4030;52.362;9.206;2023-04-09T21:34:39;12.70;57.30
7970;DHT22;4030;52.362;9.206;2023-04-09T21:37:05;12.70;57.30
7970;DHT22;4030;52.362;9.206;2023-04-09T21:39:30;12.70;57.40
7970;DHT22;4030;52.362;9.206;2023-04-09T21:46:48;12.50;57.40
7970;DHT22;4030;52.362;9.206;2023-04-09T21:49:14;12.60;57.50
7970;DHT22;4030;52.362;9.206;2023-04-09T21:51:39;12.50;57.40
7970;DHT22;4030;52.362;9.206;2023-04-09T21:54:07;12.30;57.40
7970;DHT22;4030;52.362;9.206;2023-04-09T21:56:35;12.40;57.40
7970;DHT22;4030;52.362;9.206;2023-04-09T21:59:01;12.40;57.50
7970;DHT22;4030;52.362;9.206;2023-04-09T22:01:28;12.40;57.60
7970;DHT22;4030;52.362;9.206;2023-04-09T22:03:59;12.30;57.50
7970;DHT22;4030;52.362;9.206;2023-04-09T22:06:26;12.30;57.50
7970;DHT22;4030;52.362;9.206;2023-04-09T22:08:53;12.40;57.70
7970;DHT22;4030;52.362;9.206;2023-04-09T22:18:41;12.10;57.70
7970;DHT22;4030;52.362;9.206;2023-04-09T22:21:06;12.10;57.70
7970;DHT22;4030;52.362;9.206;2023-04-09T22:23:32;12.10;57.70
7970;DHT22;4030;52.362;9.206;2023-04-09T22:26:02;12.10;57.70
7970;DHT22;4030;52.362;9.206;2023-04-09T22:30:57;12.00;57.70
7970;DHT22;4030;52.362;9.206;2023-04-09T22:33:26;12.00;57.80
7970;DHT22;4030;52.362;9.206;2023-04-09T22:35:52;12.00;57.80
7970;DHT22;4030;52.362;9.206;2023-04-09T22:38:19;12.00;57.80
7970;DHT22;4030;52.362;9.206;2023-04-09T22:40:46;12.00;57.90
7970;DHT22;4030;52.362;9.206;2023-04-09T22:43:13;12.00;58.00
7970;DHT22;4030;52.362;9.206;2023-04-09T22:45:39;11.90;57.90
7970;DHT22;4030;52.362;9.206;2023-04-09T22:48:04;11.90;57.90
7970;DHT22;4030;52.362;9.206;2023-04-09T22:50:32;11.90;58.00
7970;DHT22;4030;52.362;9.206;2023-04-09T22:55:25;11.80;57.90
7970;DHT22;4030;52.362;9.206;2023-04-09T22:57:51;11.80;58.00
7970;DHT22;4030;52.362;9.206;2023-04-09T23:00:18;11.80;58.00
7970;DHT22;4030;52.362;9.206;2023-04-09T23:02:43;11.60;57.90
7970;DHT22;4030;52.362;9.206;2023-04-09T23:05:11;11.70;58.10
7970;DHT22;4030;52.362;9.206;2023-04-09T23:07:37;11.70;58.10
7970;DHT22;4030;52.362;9.206;2023-04-09T23:12:29;11.70;58.20
7970;DHT22;4030;52.362;9.206;2023-04-09T23:19:49;11.60;58.30
7970;DHT22;4030;52.362;9.206;2023-04-09T23:22:16;11.60;58.40
7970;DHT22;4030;52.362;9.206;2023-04-09T23:27:08;11.60;58.50
7970;DHT22;4030;52.362;9.206;2023-04-09T23:29:34;11.40;58.30
7970;DHT22;4030;52.362;9.206;2023-04-09T23:58:47;11.30;58.80
